Time;durP1;ratioP1;P1;durP2;ratioP2;P2;SDS_P1;SDS_P2;PMS_P1;PMS_P2;Temp;Humidity;BMP_temperature;BMP_pressure;BME280_temperature;BME280_humidity;BME280_pressure;Samples;Min_cycle;Max_cycle;Signal;HPM_P1;HPM_P2
2021/09/13 00:01:13;;;;;;;3.08;2.67;;;24.70;48.30;;;;;;5032238;28;20203;-44
2021/09/13 00:03:39;;;;;;;2.67;2.20;;;24.70;48.30;;;;;;5031794;28;20285;-46
2021/09/13 00:06:06;;;;;;;2.08;1.98;;;24.70;48.30;;;;;;5032605;28;20252;-48
2021/09/13 00:08:32;;;;;;;3.00;2.50;;;24.70;48.30;;;;;;5032922;28;20266;-45
2021/09/13 00:10:59;;;;;;;2.60;2.40;;;24.70;48.30;;;;;;5032307;28;20208;-45
2021/09/13 00:13:25;;;;;;;2.50;2.30;;;24.70;48.30;;;;;;5031811;28;20285;-46
2021/09/13 00:15:51;;;;;;;1.98;1.88;;;24.70;48.30;;;;;;5031632;28;20281;-47
2021/09/13 00:18:18;;;;;;;2.53;2.33;;;24.70;48.30;;;;;;5032628;28;20702;-48
2021/09/13 00:20:44;;;;;;;2.50;2.30;;;24.70;48.30;;;;;;5032389;28;20285;-47
2021/09/13 00:23:11;;;;;;;2.40;2.20;;;24.70;48.30;;;;;;5032489;28;20249;-48
2021/09/13 00:25:37;;;;;;;2.40;2.20;;;24.70;48.30;;;;;;5031532;28;20204;-49
2021/09/13 00:28:04;;;;;;;2.92;2.17;;;24.70;48.30;;;;;;5031491;28;20302;-47
2021/09/13 00:30:30;;;;;;;2.92;2.13;;;24.70;48.30;;;;;;5032761;28;20298;-47
2021/09/13 00:32:57;;;;;;;2.40;2.20;;;24.70;48.30;;;;;;5031521;28;20711;-47
2021/09/13 00:35:25;;;;;;;2.00;1.90;;;24.70;48.40;;;;;;5029852;28;20234;-46
2021/09/13 00:37:51;;;;;;;2.58;2.38;;;24.70;48.40;;;;;;5030898;28;20325;-46
2021/09/13 00:40:18;;;;;;;3.03;2.53;;;24.70;48.40;;;;;;5031675;28;20289;-47
2021/09/13 00:42:44;;;;;;;2.63;2.35;;;24.70;48.50;;;;;;5032266;28;20630;-50
2021/09/13 00:45:11;;;;;;;2.70;2.50;;;24.70;48.50;;;;;;5030746;28;20282;-45
2021/09/13 00:47:37;;;;;;;2.70;2.50;;;24.70;48.50;;;;;;5030691;28;20310;-46
2021/09/13 00:50:04;;;;;;;3.75;2.38;;;24.70;48.60;;;;;;5031371;28;20293;-47
2021/09/13 00:52:30;;;;;;;2.25;2.05;;;24.70;48.60;;;;;;5032565;28;20290;-48
2021/09/13 00:54:57;;;;;;;2.47;2.10;;;24.70;48.60;;;;;;5030339;28;20194;-48
2021/09/13 00:57:23;;;;;;;2.22;2.03;;;24.70;48.60;;;;;;5032210;28;20305;-45
2021/09/13 00:59:49;;;;;;;2.42;2.22;;;24.70;48.60;;;;;;5030552;28;20241;-46
2021/09/13 01:02:16;;;;;;;2.40;2.20;;;24.70;48.70;;;;;;5032079;28;20215;-46
2021/09/13 01:04:42;;;;;;;2.58;2.28;;;24.70;48.70;;;;;;5029358;28;20313;-46
2021/09/13 01:07:09;;;;;;;2.47;2.28;;;24.70;48.70;;;;;;5030823;28;20823;-47
2021/09/13 01:09:35;;;;;;;2.53;2.33;;;24.70;48.80;;;;;;5032483;28;20241;-47
2021/09/13 01:12:02;;;;;;;2.83;2.13;;;24.70;48.80;;;;;;5031140;28;20290;-51
2021/09/13 01:14:28;;;;;;;2.53;2.00;;;24.70;48.80;;;;;;5031496;28;20293;-46
2021/09/13 01:16:55;;;;;;;2.17;1.98;;;24.70;48.80;;;;;;5029777;28;20203;-48
2021/09/13 01:19:21;;;;;;;2.42;2.10;;;24.70;48.80;;;;;;5032079;28;20281;-45
2021/09/13 01:21:48;;;;;;;2.53;2.33;;;24.70;48.80;;;;;;5030364;28;20277;-46
2021/09/13 01:24:14;;;;;;;2.83;2.50;;;24.70;48.80;;;;;;5031329;28;20238;-47
2021/09/13 01:26:41;;;;;;;2.20;2.00;;;24.70;48.90;;;;;;5029253;28;20720;-50
2021/09/13 01:29:07;;;;;;;2.50;1.92;;;24.70;49.00;;;;;;5031590;28;20588;-49
2021/09/13 01:31:34;;;;;;;2.85;2.20;;;24.70;49.00;;;;;;5029488;28;20224;-47
2021/09/13 01:34:00;;;;;;;2.80;2.10;;;24.70;49.00;;;;;;5030668;28;20221;-47
2021/09/13 01:36:27;;;;;;;2.05;1.95;;;24.70;49.00;;;;;;5044264;22;20274;-48
2021/09/13 01:38:53;;;;;;;2.20;2.00;;;24.70;49.70;;;;;;5029113;28;20200;-47
2021/09/13 01:41:20;;;;;;;2.50;2.30;;;24.70;49.00;;;;;;5023314;28;20204;-43
2021/09/13 01:43:46;;;;;;;3.08;2.30;;;24.70;48.90;;;;;;5005572;28;20597;-45
2021/09/13 01:46:13;;;;;;;2.67;2.40;;;24.70;48.90;;;;;;4997923;28;20282;-43
2021/09/13 01:48:39;;;;;;;2.58;2.33;;;24.70;48.90;;;;;;5005063;28;21007;-45
2021/09/13 01:51:07;;;;;;;2.42;2.22;;;24.70;48.90;;;;;;5006661;28;20582;-47
2021/09/13 01:53:34;;;;;;;2.30;2.10;;;24.70;48.90;;;;;;5004963;28;20300;-42
2021/09/13 01:56:00;;;;;;;2.50;2.30;;;24.70;48.80;;;;;;5004515;28;20226;-46
2021/09/13 01:58:27;;;;;;;2.97;2.30;;;24.70;48.80;;;;;;5004219;28;20414;-44
2021/09/13 02:00:53;;;;;;;2.35;2.15;;;24.70;48.80;;;;;;5004036;28;20199;-46
2021/09/13 02:03:20;;;;;;;2.63;2.30;;;24.70;48.80;;;;;;5004796;28;20225;-48
2021/09/13 02:05:46;;;;;;;2.72;2.53;;;24.70;48.70;;;;;;5005171;28;20198;-42
2021/09/13 02:08:13;;;;;;;3.25;2.75;;;24.70;48.70;;;;;;5004656;28;20622;-43
2021/09/13 02:10:39;;;;;;;2.47;2.28;;;24.70;48.70;;;;;;5005770;28;20231;-43
2021/09/13 02:13:07;;;;;;;2.42;2.17;;;24.70;48.70;;;;;;5005845;28;20610;-43
2021/09/13 02:15:33;;;;;;;2.20;2.10;;;24.70;48.70;;;;;;5006385;28;20212;-43
2021/09/13 02:18:00;;;;;;;2.03;1.92;;;24.70;48.70;;;;;;5010670;28;20306;-43
2021/09/13 02:20:26;;;;;;;2.38;2.25;;;24.70;48.60;;;;;;5001280;28;20205;-44
2021/09/13 02:22:52;;;;;;;2.47;2.28;;;24.70;48.60;;;;;;5029732;28;20289;-42
2021/09/13 02:25:19;;;;;;;2.50;2.30;;;24.70;48.60;;;;;;5011952;28;20207;-42
2021/09/13 02:27:45;;;;;;;2.40;2.20;;;24.70;48.60;;;;;;5008716;28;20778;-45
2021/09/13 02:30:12;;;;;;;2.50;2.30;;;24.70;48.60;;;;;;5005349;28;20207;-43
2021/09/13 02:32:38;;;;;;;2.30;2.10;;;24.70;48.60;;;;;;5005330;28;20206;-44
2021/09/13 02:35:05;;;;;;;2.40;2.15;;;24.70;48.70;;;;;;5002905;28;20206;-46
2021/09/13 02:37:32;;;;;;;2.17;2.05;;;24.70;48.70;;;;;;5009718;28;20234;-47
2021/09/13 02:39:58;;;;;;;2.50;2.30;;;24.70;48.60;;;;;;5007222;28;20208;-46
2021/09/13 02:42:25;;;;;;;2.55;2.25;;;24.70;48.60;;;;;;4992144;28;20322;-46
2021/09/13 02:44:51;;;;;;;2.45;2.15;;;24.70;48.60;;;;;;5003282;28;20226;-50
2021/09/13 02:47:18;;;;;;;2.20;2.00;;;24.70;48.60;;;;;;5028860;28;20219;-47
2021/09/13 02:49:44;;;;;;;2.40;2.20;;;24.70;48.60;;;;;;5022466;28;20596;-49
2021/09/13 02:52:11;;;;;;;2.33;2.13;;;24.70;48.60;;;;;;5011255;28;20207;-49
2021/09/13 02:54:37;;;;;;;2.20;2.00;;;24.70;48.60;;;;;;5013034;28;20295;-43
2021/09/13 02:57:03;;;;;;;2.55;2.35;;;24.70;48.60;;;;;;5031313;28;20305;-43
2021/09/13 02:59:30;;;;;;;2.58;2.38;;;24.70;48.60;;;;;;5025410;28;20203;-43
2021/09/13 03:01:56;;;;;;;2.47;2.28;;;24.70;48.60;;;;;;5009970;28;20210;-43
2021/09/13 03:04:23;;;;;;;2.33;2.13;;;24.70;48.60;;;;;;5021640;28;20230;-42
2021/09/13 03:06:51;;;;;;;2.15;1.90;;;24.70;48.60;;;;;;5012284;28;20262;-43
2021/09/13 03:09:17;;;;;;;2.60;2.40;;;24.70;48.60;;;;;;5031999;28;20256;-42
2021/09/13 03:11:43;;;;;;;2.25;2.15;;;24.70;48.70;;;;;;5007156;28;20286;-43
2021/09/13 03:14:10;;;;;;;2.35;2.15;;;24.60;48.60;;;;;;5028739;28;20209;-43
2021/09/13 03:16:36;;;;;;;2.35;2.20;;;24.70;48.70;;;;;;5013968;28;20306;-43
2021/09/13 03:19:03;;;;;;;2.10;2.00;;;24.70;48.70;;;;;;5014822;28;20326;-49
2021/09/13 03:21:29;;;;;;;2.40;2.20;;;24.70;48.70;;;;;;5024438;28;20622;-44
2021/09/13 03:23:56;;;;;;;2.50;2.30;;;24.70;48.70;;;;;;5015360;28;20313;-46
2021/09/13 03:26:22;;;;;;;2.40;2.15;;;24.70;48.70;;;;;;5015238;28;20298;-45
2021/09/13 03:28:49;;;;;;;2.42;2.25;;;24.70;48.70;;;;;;5020026;28;20206;-44
2021/09/13 03:31:15;;;;;;;2.50;2.30;;;24.70;48.60;;;;;;5021033;28;20290;-44
2021/09/13 03:33:42;;;;;;;2.10;2.00;;;24.60;48.60;;;;;;5013129;28;20214;-48
2021/09/13 03:36:08;;;;;;;2.78;2.58;;;24.70;48.60;;;;;;5014941;28;20253;-46
2021/09/13 03:38:35;;;;;;;2.17;2.08;;;24.70;48.70;;;;;;5013657;28;20211;-49
2021/09/13 03:41:01;;;;;;;2.22;2.05;;;24.70;48.70;;;;;;5017728;28;20202;-44
2021/09/13 03:43:28;;;;;;;2.25;2.05;;;24.70;48.70;;;;;;5023733;28;20635;-43
2021/09/13 03:45:54;;;;;;;2.20;2.00;;;24.60;48.60;;;;;;5014778;28;20281;-45
2021/09/13 03:48:22;;;;;;;2.40;2.20;;;24.70;48.70;;;;;;5013615;28;20227;-45
2021/09/13 03:50:48;;;;;;;2.50;2.30;;;24.60;48.60;;;;;;5014400;28;20235;-51
2021/09/13 03:53:15;;;;;;;2.30;2.10;;;24.70;48.70;;;;;;5025470;28;20195;-48
2021/09/13 03:55:41;;;;;;;1.98;1.88;;;24.70;48.70;;;;;;5018008;28;20209;-47
2021/09/13 03:58:08;;;;;;;2.63;2.42;;;24.60;48.60;;;;;;5011392;28;20741;-43
2021/09/13 04:00:34;;;;;;;2.22;2.13;;;24.70;48.70;;;;;;5031905;28;20207;-44
2021/09/13 04:03:03;;;;;;;2.42;2.22;;;24.70;48.70;;;;;;5014222;28;20758;-45
2021/09/13 04:05:30;;;;;;;2.60;2.40;;;24.70;48.70;;;;;;5013910;28;20238;-44
2021/09/13 04:08:12;;;;;;;2.20;2.10;;;24.70;48.70;;;;;;5032288;28;20260;-45
2021/09/13 04:10:44;;;;;;;2.47;2.28;;;24.70;48.80;;;;;;5033326;28;20699;-49
2021/09/13 04:13:10;;;;;;;2.42;2.22;;;24.60;48.70;;;;;;5015202;28;20207;-48
2021/09/13 04:15:37;;;;;;;2.30;2.10;;;24.60;48.70;;;;;;5016955;28;20302;-45
2021/09/13 04:18:03;;;;;;;2.03;1.88;;;24.70;48.80;;;;;;5011787;28;20310;-49
2021/09/13 04:20:30;;;;;;;2.45;2.25;;;24.60;48.70;;;;;;5027209;28;20313;-48
2021/09/13 04:22:56;;;;;;;2.38;2.17;;;24.60;48.70;;;;;;5019430;28;20628;-42
2021/09/13 04:25:23;;;;;;;2.03;1.90;;;24.70;48.80;;;;;;5033416;28;20270;-46
2021/09/13 04:27:49;;;;;;;2.13;2.03;;;24.60;48.80;;;;;;5019023;28;20229;-46
2021/09/13 04:30:16;;;;;;;2.30;1.98;;;24.60;48.80;;;;;;5030542;28;20195;-45
2021/09/13 04:32:42;;;;;;;2.05;1.95;;;24.60;48.80;;;;;;5025066;28;20722;-44
2021/09/13 04:35:08;;;;;;;2.15;1.95;;;24.70;48.80;;;;;;5033227;28;20285;-44
2021/09/13 04:37:35;;;;;;;3.40;3.08;;;24.60;48.70;;;;;;5020616;28;20305;-45
2021/09/13 04:40:02;;;;;;;2.40;2.20;;;24.70;48.80;;;;;;5033439;28;20560;-45
2021/09/13 04:42:28;;;;;;;2.50;2.30;;;24.60;48.70;;;;;;5021183;28;20366;-44
2021/09/13 04:44:55;;;;;;;2.03;1.92;;;24.60;48.70;;;;;;5013112;28;20231;-45
2021/09/13 04:47:21;;;;;;;2.30;2.20;;;24.60;48.70;;;;;;5013063;28;20229;-47
2021/09/13 04:49:48;;;;;;;1.92;1.83;;;24.60;48.70;;;;;;5028883;28;20289;-45
2021/09/13 04:52:14;;;;;;;3.47;2.67;;;24.60;48.60;;;;;;5015535;28;20289;-46
2021/09/13 04:54:41;;;;;;;2.42;2.15;;;24.60;48.60;;;;;;5012845;28;20207;-43
2021/09/13 04:57:07;;;;;;;2.65;2.10;;;24.60;48.60;;;;;;5012366;28;20650;-43
2021/09/13 04:59:33;;;;;;;2.00;1.90;;;24.60;48.70;;;;;;5033621;28;20285;-42
2021/09/13 05:02:00;;;;;;;2.50;2.30;;;24.60;48.70;;;;;;5015203;28;20235;-48
2021/09/13 05:04:27;;;;;;;2.25;2.13;;;24.60;48.70;;;;;;5030399;28;20313;-46
2021/09/13 05:06:54;;;;;;;2.45;2.25;;;24.60;48.70;;;;;;5023281;28;20226;-42
2021/09/13 05:09:20;;;;;;;2.50;2.30;;;24.60;48.70;;;;;;5032527;28;20286;-45
2021/09/13 05:11:46;;;;;;;2.55;2.20;;;24.60;48.60;;;;;;5018276;28;20290;-48
2021/09/13 05:14:13;;;;;;;2.22;2.13;;;24.60;48.60;;;;;;5011463;28;20215;-45
2021/09/13 05:16:39;;;;;;;2.08;1.98;;;24.60;48.60;;;;;;5015333;28;20643;-45
2021/09/13 05:19:06;;;;;;;2.20;2.03;;;24.60;48.60;;;;;;5013167;28;20305;-45
2021/09/13 05:21:37;;;;;;;2.33;2.20;;;24.60;48.70;;;;;;5014037;28;20203;-43
2021/09/13 05:24:04;;;;;;;2.47;2.28;;;24.60;48.60;;;;;;5013504;28;20322;-48
2021/09/13 05:26:30;;;;;;;2.35;2.15;;;24.60;48.60;;;;;;5013114;28;20233;-48
2021/09/13 05:28:57;;;;;;;2.05;1.90;;;24.60;48.60;;;;;;5012685;28;20209;-47
2021/09/13 05:31:23;;;;;;;2.40;2.20;;;24.60;48.60;;;;;;5016044;28;20199;-45
2021/09/13 05:33:49;;;;;;;2.22;2.03;;;24.60;48.60;;;;;;5012032;28;20199;-45
2021/09/13 05:36:16;;;;;;;3.20;2.92;;;24.60;48.60;;;;;;5007206;28;20222;-46
2021/09/13 05:38:42;;;;;;;3.22;2.42;;;24.60;48.60;;;;;;5003745;28;20286;-46
2021/09/13 05:41:09;;;;;;;2.78;2.13;;;24.60;48.60;;;;;;5020994;28;20294;-46
2021/09/13 05:43:35;;;;;;;2.30;2.10;;;24.60;48.60;;;;;;5017871;28;20230;-45
2021/09/13 05:46:02;;;;;;;2.38;2.15;;;24.60;48.70;;;;;;5012476;28;20247;-47
2021/09/13 05:48:28;;;;;;;2.47;2.28;;;24.60;48.70;;;;;;5013659;28;20293;-45
2021/09/13 05:50:55;;;;;;;2.53;2.20;;;24.60;48.60;;;;;;5012429;28;20246;-45
2021/09/13 05:53:21;;;;;;;2.55;2.35;;;24.60;48.60;;;;;;5013208;28;20290;-46
2021/09/13 05:55:48;;;;;;;4.25;2.50;;;24.60;48.60;;;;;;5011150;28;20730;-47
2021/09/13 05:58:14;;;;;;;3.45;2.30;;;24.60;48.90;;;;;;5012715;28;20262;-46
2021/09/13 06:00:40;;;;;;;2.40;2.20;;;24.60;48.90;;;;;;5012426;28;20215;-50
2021/09/13 06:03:08;;;;;;;3.47;2.45;;;24.70;49.10;;;;;;5011869;28;20291;-50
2021/09/13 06:05:35;;;;;;;5.38;2.50;;;24.70;49.20;;;;;;5010750;28;20245;-48
2021/09/13 06:08:01;;;;;;;3.55;2.40;;;24.60;49.20;;;;;;5010109;28;20219;-49
2021/09/13 06:10:27;;;;;;;2.70;2.50;;;24.70;49.20;;;;;;5012124;28;20832;-51
2021/09/13 06:12:54;;;;;;;2.42;2.22;;;24.70;49.30;;;;;;5010521;28;20601;-45
2021/09/13 06:15:20;;;;;;;2.38;2.17;;;24.70;49.30;;;;;;5022920;28;20281;-48
2021/09/13 06:17:47;;;;;;;2.85;2.08;;;24.70;49.40;;;;;;5014948;28;20225;-48
2021/09/13 06:20:13;;;;;;;2.40;1.80;;;24.70;49.50;;;;;;5021536;28;20209;-48
2021/09/13 06:22:40;;;;;;;2.25;2.10;;;24.70;49.50;;;;;;5016054;28;20294;-47
2021/09/13 06:25:06;;;;;;;2.60;2.38;;;24.60;49.40;;;;;;5019901;28;20309;-43
2021/09/13 06:27:33;;;;;;;2.38;2.17;;;24.70;49.50;;;;;;5016012;28;20229;-44
2021/09/13 06:29:59;;;;;;;2.22;2.03;;;24.70;49.60;;;;;;5010593;28;20282;-48
2021/09/13 06:32:26;;;;;;;3.08;2.25;;;24.70;49.60;;;;;;5013760;28;20291;-48
2021/09/13 06:34:52;;;;;;;3.15;2.20;;;24.70;49.70;;;;;;5025521;28;20202;-46
2021/09/13 06:37:20;;;;;;;3.35;2.10;;;24.70;49.80;;;;;;5030868;28;20393;-46
2021/09/13 06:39:46;;;;;;;2.28;2.03;;;24.70;49.90;;;;;;5022708;28;20203;-47
2021/09/13 06:42:13;;;;;;;2.92;2.17;;;24.70;50.00;;;;;;5013805;28;20243;-46
2021/09/13 06:44:39;;;;;;;4.45;2.65;;;24.70;50.00;;;;;;5026800;28;20737;-47
2021/09/13 06:47:07;;;;;;;5.35;2.22;;;24.70;50.10;;;;;;5015108;28;20256;-48
2021/09/13 06:49:33;;;;;;;2.58;2.20;;;24.70;50.10;;;;;;5024727;28;20203;-49
2021/09/13 06:52:00;;;;;;;3.13;2.10;;;24.70;50.10;;;;;;5027711;28;20198;-50
2021/09/13 06:54:27;;;;;;;2.30;2.10;;;24.70;50.10;;;;;;5015569;28;20302;-48
2021/09/13 06:56:54;;;;;;;3.58;2.40;;;24.70;50.20;;;;;;5015424;28;20227;-48
2021/09/13 06:59:20;;;;;;;2.42;2.22;;;24.70;50.20;;;;;;5014457;28;20203;-45
2021/09/13 07:01:47;;;;;;;2.85;2.40;;;24.70;50.20;;;;;;5025722;28;20198;-43
2021/09/13 07:04:13;;;;;;;3.22;2.15;;;24.70;50.30;;;;;;5027222;28;20375;-45
2021/09/13 07:06:40;;;;;;;2.95;2.65;;;24.70;50.20;;;;;;5006293;28;20581;-46
2021/09/13 07:09:06;;;;;;;5.35;2.67;;;24.70;50.30;;;;;;5006736;28;20203;-45
2021/09/13 07:11:33;;;;;;;3.53;2.30;;;24.70;50.30;;;;;;5007439;28;20209;-43
2021/09/13 07:13:59;;;;;;;3.95;3.20;;;24.70;50.40;;;;;;5005504;28;20262;-48
2021/09/13 07:16:26;;;;;;;2.10;1.90;;;24.70;50.80;;;;;;5007395;28;20239;-44
2021/09/13 07:18:52;;;;;;;5.80;2.45;;;24.70;50.50;;;;;;5008002;28;20290;-46
2021/09/13 07:21:19;;;;;;;6.75;6.05;;;24.70;50.40;;;;;;5007130;28;20200;-49
2021/09/13 07:23:45;;;;;;;9.60;7.30;;;24.30;46.90;;;;;;5005905;28;20205;-45
2021/09/13 07:26:12;;;;;;;8.05;6.85;;;23.40;46.70;;;;;;4998874;28;20654;-44
2021/09/13 07:28:38;;;;;;;8.15;6.85;;;22.70;47.10;;;;;;5016943;28;20217;-45
2021/09/13 07:31:04;;;;;;;7.18;6.47;;;22.40;48.10;;;;;;5034058;28;20285;-43
2021/09/13 07:33:31;;;;;;;6.63;5.60;;;22.50;49.20;;;;;;5013432;28;20203;-42
2021/09/13 07:35:57;;;;;;;5.85;5.07;;;22.90;49.50;;;;;;5006261;28;20225;-45
2021/09/13 07:38:25;;;;;;;7.70;4.97;;;23.20;49.40;;;;;;5007777;28;20215;-43
2021/09/13 07:40:51;;;;;;;6.20;4.60;;;23.50;49.60;;;;;;5007204;28;20206;-43
2021/09/13 07:43:17;;;;;;;4.63;4.13;;;23.60;49.60;;;;;;5007276;28;20214;-46
2021/09/13 07:45:44;;;;;;;6.28;4.40;;;23.80;49.70;;;;;;5006641;28;20246;-47
2021/09/13 07:48:10;;;;;;;5.63;4.55;;;23.90;49.60;;;;;;5008187;28;20313;-48
2021/09/13 07:50:38;;;;;;;6.35;4.47;;;24.00;49.60;;;;;;4993472;28;20320;-45
2021/09/13 07:53:04;;;;;;;4.35;3.95;;;24.00;49.50;;;;;;5010937;28;20211;-43
2021/09/13 07:55:31;;;;;;;4.22;3.88;;;24.00;49.40;;;;;;5012195;28;20290;-51
2021/09/13 07:57:57;;;;;;;4.20;3.80;;;24.10;49.50;;;;;;5017410;28;20298;-42
2021/09/13 08:00:23;;;;;;;5.32;3.80;;;24.10;49.40;;;;;;5017293;28;20199;-44
2021/09/13 08:02:50;;;;;;;4.22;3.47;;;24.20;49.40;;;;;;5007788;28;20624;-45
2021/09/13 08:05:17;;;;;;;5.85;4.10;;;24.20;49.20;;;;;;5005611;28;20250;-41
2021/09/13 08:07:43;;;;;;;6.88;3.75;;;24.20;49.40;;;;;;5004848;28;20282;-42
2021/09/13 08:10:09;;;;;;;5.68;4.53;;;24.30;48.90;;;;;;5006286;28;20200;-42
2021/09/13 08:12:36;;;;;;;4.28;3.88;;;24.30;49.20;;;;;;5007343;28;20213;-45
2021/09/13 08:15:02;;;;;;;4.75;3.90;;;24.30;49.40;;;;;;5006391;28;20290;-45
2021/09/13 08:17:29;;;;;;;3.97;3.60;;;24.30;49.20;;;;;;5005159;28;20595;-45
2021/09/13 08:19:56;;;;;;;3.90;3.60;;;24.30;49.10;;;;;;4997155;28;20286;-43
2021/09/13 08:22:22;;;;;;;3.28;2.97;;;24.30;49.00;;;;;;5011988;28;20199;-46
2021/09/13 08:24:50;;;;;;;3.70;3.40;;;24.30;48.80;;;;;;5013885;28;20592;-42
2021/09/13 08:27:17;;;;;;;4.60;3.58;;;24.40;48.60;;;;;;5011934;28;20700;-42
2021/09/13 08:29:43;;;;;;;4.13;3.72;;;24.30;48.40;;;;;;5012786;28;20225;-43
2021/09/13 08:32:10;;;;;;;3.70;3.40;;;24.40;48.90;;;;;;5004843;28;20200;-42
2021/09/13 08:34:37;;;;;;;5.03;3.83;;;24.40;48.70;;;;;;5005408;28;20205;-48
2021/09/13 08:37:04;;;;;;;3.80;3.45;;;24.40;49.50;;;;;;5005852;28;20243;-43
2021/09/13 08:39:30;;;;;;;3.33;3.03;;;24.40;48.40;;;;;;5007303;28;20212;-45
2021/09/13 08:41:56;;;;;;;3.80;3.50;;;24.40;48.40;;;;;;5020898;28;20686;-44
2021/09/13 08:44:23;;;;;;;4.60;3.60;;;24.40;48.00;;;;;;5012454;28;20226;-43
2021/09/13 08:46:52;;;;;;;3.60;3.30;;;24.40;48.10;;;;;;5011670;28;20234;-52
2021/09/13 08:49:28;;;;;;;3.85;3.00;;;24.40;48.00;;;;;;5007214;28;20202;-44
2021/09/13 08:51:54;;;;;;;3.22;3.03;;;24.40;48.00;;;;;;5006230;28;20845;-44
2021/09/13 08:54:24;;;;;;;4.97;3.40;;;24.40;48.10;;;;;;5007524;28;20341;-48
2021/09/13 08:56:52;;;;;;;3.60;3.28;;;24.50;48.60;;;;;;5024349;28;20285;-44
2021/09/13 08:59:22;;;;;;;3.20;2.90;;;24.50;48.70;;;;;;5032545;28;20207;-47
2021/09/13 09:01:49;;;;;;;6.35;3.60;;;24.60;48.90;;;;;;5031345;28;20210;-44
2021/09/13 09:04:15;;;;;;;8.82;3.10;;;24.60;48.90;;;;;;5019379;28;20302;-44
2021/09/13 09:06:42;;;;;;;3.28;2.97;;;24.60;48.80;;;;;;5012323;28;20266;-44
2021/09/13 09:09:08;;;;;;;3.33;3.03;;;24.60;48.80;;;;;;5023272;28;20195;-47
2021/09/13 09:11:34;;;;;;;4.60;3.33;;;24.60;48.70;;;;;;5020825;28;20301;-48
2021/09/13 09:14:02;;;;;;;4.00;3.30;;;24.60;48.80;;;;;;5011887;28;20302;-47
2021/09/13 09:16:28;;;;;;;3.42;2.92;;;24.60;48.70;;;;;;5012582;28;20227;-45
2021/09/13 09:18:55;;;;;;;3.78;3.35;;;24.60;48.70;;;;;;5012043;28;20239;-47
2021/09/13 09:21:21;;;;;;;3.75;3.08;;;24.60;48.60;;;;;;5012218;28;20303;-45
2021/09/13 09:23:47;;;;;;;3.88;3.58;;;24.60;48.60;;;;;;5011136;28;20219;-45
2021/09/13 09:26:14;;;;;;;3.53;3.00;;;24.60;48.60;;;;;;5004619;28;20266;-45
2021/09/13 09:28:40;;;;;;;5.43;3.33;;;24.60;48.90;;;;;;5004992;28;20707;-43
2021/09/13 09:31:07;;;;;;;4.38;3.40;;;24.60;48.90;;;;;;5004409;28;20294;-47
2021/09/13 09:33:33;;;;;;;5.30;3.15;;;24.70;49.00;;;;;;5004954;28;20286;-41
2021/09/13 09:36:00;;;;;;;5.55;3.33;;;24.70;49.40;;;;;;5003310;28;20223;-45
2021/09/13 09:38:26;;;;;;;4.78;3.65;;;24.80;49.80;;;;;;5006202;28;20239;-46
2021/09/13 09:40:53;;;;;;;5.72;3.47;;;24.80;49.60;;;;;;5003755;28;20623;-48
2021/09/13 09:43:19;;;;;;;6.95;3.78;;;24.80;49.60;;;;;;5005698;28;20294;-45
2021/09/13 09:45:46;;;;;;;6.00;3.50;;;24.80;49.60;;;;;;5002135;28;20326;-46
2021/09/13 09:48:12;;;;;;;4.55;3.28;;;24.80;49.60;;;;;;5003587;28;20203;-42
2021/09/13 09:50:39;;;;;;;4.55;3.20;;;24.80;49.70;;;;;;5004842;28;20212;-43
2021/09/13 09:53:05;;;;;;;5.45;3.20;;;24.90;49.90;;;;;;5004646;28;20283;-42
2021/09/13 09:55:32;;;;;;;4.78;3.38;;;24.80;49.80;;;;;;5002048;28;20309;-42
2021/09/13 09:57:58;;;;;;;4.72;3.10;;;24.90;50.00;;;;;;5004200;28;20238;-44
2021/09/13 10:00:25;;;;;;;5.32;3.47;;;24.90;50.00;;;;;;5003152;28;20199;-42
2021/09/13 10:02:52;;;;;;;6.80;3.00;;;24.90;50.00;;;;;;5005342;28;20603;-45
2021/09/13 10:05:18;;;;;;;6.03;3.05;;;24.90;50.00;;;;;;5002468;28;20258;-45
2021/09/13 10:07:45;;;;;;;3.72;3.38;;;24.90;50.50;;;;;;5019356;28;20301;-47
2021/09/13 10:10:11;;;;;;;4.05;3.50;;;24.90;50.30;;;;;;5011449;28;20631;-47
2021/09/13 10:12:38;;;;;;;4.15;3.10;;;24.90;50.20;;;;;;5011409;28;20291;-49
2021/09/13 10:15:04;;;;;;;4.15;3.08;;;24.90;50.10;;;;;;5010617;28;20318;-45
2021/09/13 10:17:31;;;;;;;4.72;3.42;;;24.90;49.80;;;;;;5010155;28;20249;-44
2021/09/13 10:19:58;;;;;;;3.50;3.20;;;24.90;49.30;;;;;;5010757;28;20207;-48
2021/09/13 10:22:24;;;;;;;3.83;3.08;;;24.80;49.30;;;;;;5014634;28;20234;-50
2021/09/13 10:24:51;;;;;;;4.82;3.53;;;24.80;49.00;;;;;;5019212;28;20203;-45
2021/09/13 10:27:20;;;;;;;3.88;3.45;;;24.80;48.40;;;;;;5013307;28;20237;-42
2021/09/13 10:29:46;;;;;;;4.55;3.30;;;24.70;48.30;;;;;;5025303;28;20227;-45
2021/09/13 10:32:12;;;;;;;3.25;2.95;;;24.70;49.30;;;;;;5014265;28;20230;-45
2021/09/13 10:34:39;;;;;;;3.80;3.40;;;24.80;48.80;;;;;;5015053;28;20226;-48
2021/09/13 10:37:05;;;;;;;4.18;3.15;;;24.80;49.00;;;;;;5004435;28;20584;-47
2021/09/13 10:39:32;;;;;;;3.58;3.10;;;24.80;48.40;;;;;;5003046;28;20294;-49
2021/09/13 10:41:58;;;;;;;3.95;3.20;;;24.80;48.40;;;;;;5004019;28;20309;-45
2021/09/13 10:44:25;;;;;;;4.57;3.25;;;24.80;48.40;;;;;;5003016;28;20638;-42
2021/09/13 10:46:52;;;;;;;4.07;3.47;;;24.70;48.30;;;;;;5004401;28;21932;-42
2021/09/13 10:49:18;;;;;;;4.13;3.58;;;24.70;48.40;;;;;;5004617;28;20226;-41
2021/09/13 10:51:45;;;;;;;5.30;4.05;;;24.80;48.40;;;;;;5003570;28;20673;-42
2021/09/13 10:54:11;;;;;;;3.28;2.95;;;24.80;48.40;;;;;;5002872;28;20304;-43
2021/09/13 10:56:38;;;;;;;3.60;3.15;;;24.70;48.30;;;;;;5004219;28;20249;-43
2021/09/13 10:59:04;;;;;;;4.15;3.38;;;24.80;48.60;;;;;;5004316;28;21195;-45
2021/09/13 11:01:31;;;;;;;4.13;3.60;;;24.80;48.40;;;;;;5004694;28;20226;-43
2021/09/13 11:03:57;;;;;;;3.78;3.22;;;24.80;48.40;;;;;;5004827;28;20234;-46
2021/09/13 11:06:24;;;;;;;3.78;3.42;;;24.80;48.40;;;;;;5031174;28;20237;-43
2021/09/13 11:08:50;;;;;;;4.65;3.47;;;24.80;49.10;;;;;;5020418;28;20239;-46
2021/09/13 11:11:17;;;;;;;3.22;2.80;;;24.80;48.40;;;;;;5017591;28;20227;-46
2021/09/13 11:13:43;;;;;;;3.20;2.90;;;24.80;48.40;;;;;;5013730;28;20219;-45
2021/09/13 11:16:10;;;;;;;3.50;3.20;;;24.80;48.40;;;;;;5010593;28;20301;-43
2021/09/13 11:18:36;;;;;;;4.57;3.67;;;24.80;48.40;;;;;;5010586;28;20231;-45
2021/09/13 11:21:03;;;;;;;3.53;3.22;;;24.80;48.90;;;;;;5007089;28;20774;-41
2021/09/13 11:23:29;;;;;;;4.15;3.22;;;24.80;49.00;;;;;;5008646;28;20283;-43
2021/09/13 11:25:56;;;;;;;4.68;3.25;;;24.80;49.10;;;;;;5014108;28;20257;-41
2021/09/13 11:28:22;;;;;;;3.60;3.30;;;24.80;49.70;;;;;;5015680;28;20237;-43
2021/09/13 11:30:49;;;;;;;4.13;3.00;;;24.90;49.00;;;;;;5029652;28;20229;-41
2021/09/13 11:33:15;;;;;;;3.55;3.20;;;24.90;49.00;;;;;;5033090;28;20229;-41
2021/09/13 11:35:42;;;;;;;3.58;2.90;;;24.90;49.00;;;;;;5015289;28;20250;-42
2021/09/13 11:38:08;;;;;;;3.13;2.83;;;24.80;48.90;;;;;;5012017;28;20239;-42
2021/09/13 11:40:35;;;;;;;3.38;3.10;;;24.80;48.90;;;;;;5027272;28;20227;-42
2021/09/13 11:43:01;;;;;;;3.13;2.80;;;24.80;48.90;;;;;;5021628;28;20333;-42
2021/09/13 11:45:28;;;;;;;3.38;3.08;;;24.90;49.00;;;;;;5029618;28;20618;-45
2021/09/13 11:47:54;;;;;;;3.30;3.00;;;24.80;48.90;;;;;;5012097;28;20226;-41
2021/09/13 11:50:21;;;;;;;3.40;3.10;;;24.80;48.90;;;;;;5010694;28;20230;-40
2021/09/13 11:52:49;;;;;;;4.35;3.20;;;24.80;48.90;;;;;;5019616;28;20610;-42
2021/09/13 11:55:16;;;;;;;2.70;2.50;;;24.80;48.90;;;;;;5016360;28;20763;-43
2021/09/13 11:57:43;;;;;;;3.30;3.00;;;24.80;48.90;;;;;;5013211;28;20207;-40
2021/09/13 12:00:09;;;;;;;2.95;2.67;;;24.80;48.90;;;;;;5015054;28;20236;-40
2021/09/13 12:02:36;;;;;;;3.33;3.00;;;24.90;48.90;;;;;;5014392;28;20609;-40
2021/09/13 12:05:02;;;;;;;2.85;2.63;;;24.80;48.80;;;;;;5011299;28;20250;-41
2021/09/13 12:07:29;;;;;;;3.10;2.67;;;24.80;48.80;;;;;;5014300;28;20321;-41
2021/09/13 12:09:55;;;;;;;3.30;3.00;;;24.90;48.90;;;;;;5010539;28;20227;-41
2021/09/13 12:12:22;;;;;;;3.22;2.92;;;24.80;48.80;;;;;;5011232;28;20234;-40
2021/09/13 12:14:48;;;;;;;3.22;2.40;;;24.90;48.90;;;;;;5018140;28;20230;-42
2021/09/13 12:17:15;;;;;;;3.22;2.55;;;24.80;48.80;;;;;;5017960;28;20537;-41
2021/09/13 12:19:41;;;;;;;3.08;2.78;;;24.90;48.90;;;;;;5030090;28;20214;-42
2021/09/13 12:22:07;;;;;;;3.13;2.90;;;24.80;48.80;;;;;;5010685;28;20287;-41
2021/09/13 12:24:34;;;;;;;3.00;2.70;;;24.90;48.90;;;;;;5013916;28;20265;-40
2021/09/13 12:27:00;;;;;;;3.33;3.03;;;24.80;48.80;;;;;;5014712;28;20263;-40
2021/09/13 12:29:27;;;;;;;2.97;2.67;;;24.80;48.80;;;;;;5023099;28;20623;-40
2021/09/13 12:31:53;;;;;;;2.90;2.67;;;24.80;48.80;;;;;;5017800;28;20244;-44
2021/09/13 12:34:20;;;;;;;3.10;2.70;;;24.80;48.80;;;;;;5011462;28;20386;-40
2021/09/13 12:36:46;;;;;;;3.08;2.75;;;24.90;48.90;;;;;;5012117;28;20239;-43
2021/09/13 12:39:13;;;;;;;3.20;3.00;;;24.90;48.90;;;;;;5010374;28;20254;-42
2021/09/13 12:41:39;;;;;;;3.38;2.92;;;24.90;48.90;;;;;;5010775;28;20249;-44
2021/09/13 12:44:06;;;;;;;2.97;2.67;;;24.80;48.70;;;;;;5011843;28;20265;-41